sensor_id;sensor_type;location;lat;lon;timestamp;temperature;humidity
75451;DHT22;64029;48.244;9.188;2023-02-15T00:00:17;-1.80;85.10
75451;DHT22;64029;48.244;9.188;2023-02-15T00:02:44;-1.80;85.10
75451;DHT22;64029;48.244;9.188;2023-02-15T00:05:11;-1.90;84.90
75451;DHT22;64029;48.244;9.188;2023-02-15T00:07:37;-1.90;84.80
75451;DHT22;64029;48.244;9.188;2023-02-15T00:10:06;-1.90;84.80
75451;DHT22;64029;48.244;9.188;2023-02-15T00:12:33;-1.90;84.80
75451;DHT22;64029;48.244;9.188;2023-02-15T00:15:01;-1.90;84.80
75451;DHT22;64029;48.244;9.188;2023-02-15T00:17:28;-2.00;84.70
75451;DHT22;64029;48.244;9.188;2023-02-15T00:19:55;-2.00;84.60
75451;DHT22;64029;48.244;9.188;2023-02-15T00:22:22;-2.00;84.60
75451;DHT22;64029;48.244;9.188;2023-02-15T00:24:49;-2.10;84.50
75451;DHT22;64029;48.244;9.188;2023-02-15T00:27:16;-2.10;85.20
75451;DHT22;64029;48.244;9.188;2023-02-15T00:29:43;-2.10;84.50
75451;DHT22;64029;48.244;9.188;2023-02-15T00:32:11;-2.10;84.50
75451;DHT22;64029;48.244;9.188;2023-02-15T00:34:38;-2.10;84.50
75451;DHT22;64029;48.244;9.188;2023-02-15T00:37:04;-2.20;84.40
75451;DHT22;64029;48.244;9.188;2023-02-15T00:39:31;-2.20;84.40
75451;DHT22;64029;48.244;9.188;2023-02-15T00:41:58;-2.20;84.30
75451;DHT22;64029;48.244;9.188;2023-02-15T00:44:25;-2.20;84.30
75451;DHT22;64029;48.244;9.188;2023-02-15T00:46:52;-2.20;84.20
75451;DHT22;64029;48.244;9.188;2023-02-15T00:49:20;-2.30;84.10
75451;DHT22;64029;48.244;9.188;2023-02-15T00:51:47;-2.30;84.10
75451;DHT22;64029;48.244;9.188;2023-02-15T00:54:14;-2.30;84.10
75451;DHT22;64029;48.244;9.188;2023-02-15T00:56:40;-2.40;84.00
75451;DHT22;64029;48.244;9.188;2023-02-15T00:59:08;-2.40;84.00
75451;DHT22;64029;48.244;9.188;2023-02-15T01:01:35;-2.40;84.00
75451;DHT22;64029;48.244;9.188;2023-02-15T01:04:02;-2.40;84.00
75451;DHT22;64029;48.244;9.188;2023-02-15T01:06:30;-2.40;83.90
75451;DHT22;64029;48.244;9.188;2023-02-15T01:08:57;-2.50;84.50
75451;DHT22;64029;48.244;9.188;2023-02-15T01:11:24;-2.50;83.80
75451;DHT22;64029;48.244;9.188;2023-02-15T01:13:52;-2.50;83.80
75451;DHT22;64029;48.244;9.188;2023-02-15T01:16:20;-2.50;83.70
75451;DHT22;64029;48.244;9.188;2023-02-15T01:18:47;-2.50;83.80
75451;DHT22;64029;48.244;9.188;2023-02-15T01:21:15;-2.60;83.60
75451;DHT22;64029;48.244;9.188;2023-02-15T01:23:44;-2.60;83.60
75451;DHT22;64029;48.244;9.188;2023-02-15T01:26:11;-2.60;83.60
75451;DHT22;64029;48.244;9.188;2023-02-15T01:28:38;-2.60;83.70
75451;DHT22;64029;48.244;9.188;2023-02-15T01:31:06;-2.70;83.50
75451;DHT22;64029;48.244;9.188;2023-02-15T01:33:34;-2.70;83.60
75451;DHT22;64029;48.244;9.188;2023-02-15T01:36:02;-2.70;83.70
75451;DHT22;64029;48.244;9.188;2023-02-15T01:38:29;-2.70;83.60
75451;DHT22;64029;48.244;9.188;2023-02-15T01:40:57;-2.80;83.60
75451;DHT22;64029;48.244;9.188;2023-02-15T01:43:46;-2.70;83.70
75451;DHT22;64029;48.244;9.188;2023-02-15T01:46:16;-2.80;83.50
75451;DHT22;64029;48.244;9.188;2023-02-15T01:48:46;-2.80;83.60
75451;DHT22;64029;48.244;9.188;2023-02-15T01:51:15;-2.80;83.50
75451;DHT22;64029;48.244;9.188;2023-02-15T01:53:47;-2.80;83.50
75451;DHT22;64029;48.244;9.188;2023-02-15T01:56:19;-2.90;83.40
75451;DHT22;64029;48.244;9.188;2023-02-15T01:58:46;-2.90;83.40
75451;DHT22;64029;48.244;9.188;2023-02-15T02:01:15;-2.90;83.40
75451;DHT22;64029;48.244;9.188;2023-02-15T02:03:49;-2.90;83.40
75451;DHT22;64029;48.244;9.188;2023-02-15T02:06:20;-3.00;83.20
75451;DHT22;64029;48.244;9.188;2023-02-15T02:08:48;-3.00;83.20
75451;DHT22;64029;48.244;9.188;2023-02-15T02:11:16;-3.00;83.30
75451;DHT22;64029;48.244;9.188;2023-02-15T02:13:44;-3.10;83.10
75451;DHT22;64029;48.244;9.188;2023-02-15T02:16:18;-3.10;83.10
75451;DHT22;64029;48.244;9.188;2023-02-15T02:18:59;-3.10;83.20
75451;DHT22;64029;48.244;9.188;2023-02-15T02:21:59;-3.10;83.20
75451;DHT22;64029;48.244;9.188;2023-02-15T02:24:49;-3.10;83.20
75451;DHT22;64029;48.244;9.188;2023-02-15T02:27:29;-3.10;83.20
75451;DHT22;64029;48.244;9.188;2023-02-15T02:30:32;-3.20;83.00
75451;DHT22;64029;48.244;9.188;2023-02-15T02:33:22;-3.20;82.90
75451;DHT22;64029;48.244;9.188;2023-02-15T02:35:59;-3.20;83.00
75451;DHT22;64029;48.244;9.188;2023-02-15T02:38:32;-3.30;82.90
75451;DHT22;64029;48.244;9.188;2023-02-15T02:41:07;-3.30;82.90
75451;DHT22;64029;48.244;9.188;2023-02-15T02:43:40;-3.30;83.00
75451;DHT22;64029;48.244;9.188;2023-02-15T02:46:13;-3.30;82.80
75451;DHT22;64029;48.244;9.188;2023-02-15T02:48:45;-3.30;82.90
75451;DHT22;64029;48.244;9.188;2023-02-15T02:51:12;-3.30;82.90
75451;DHT22;64029;48.244;9.188;2023-02-15T02:53:45;-3.30;83.00
75451;DHT22;64029;48.244;9.188;2023-02-15T02:56:20;-3.30;83.00
75451;DHT22;64029;48.244;9.188;2023-02-15T02:58:50;-3.30;82.90
75451;DHT22;64029;48.244;9.188;2023-02-15T03:01:21;-3.40;82.70
75451;DHT22;64029;48.244;9.188;2023-02-15T03:03:54;-3.40;82.70
75451;DHT22;64029;48.244;9.188;2023-02-15T03:06:25;-3.40;82.70
75451;DHT22;64029;48.244;9.188;2023-02-15T03:08:58;-3.50;82.70
75451;DHT22;64029;48.244;9.188;2023-02-15T03:11:27;-3.40;82.90
75451;DHT22;64029;48.244;9.188;2023-02-15T03:13:54;-3.50;82.70
75451;DHT22;64029;48.244;9.188;2023-02-15T03:16:21;-3.50;82.60
75451;DHT22;64029;48.244;9.188;2023-02-15T03:19:00;-3.50;82.50
75451;DHT22;64029;48.244;9.188;2023-02-15T03:21:33;-3.50;82.60
75451;DHT22;64029;48.244;9.188;2023-02-15T03:24:05;-3.60;82.50
75451;DHT22;64029;48.244;9.188;2023-02-15T03:26:34;-3.60;82.60
75451;DHT22;64029;48.244;9.188;2023-02-15T03:29:04;-3.60;82.60
75451;DHT22;64029;48.244;9.188;2023-02-15T03:31:34;-3.60;82.60
75451;DHT22;64029;48.244;9.188;2023-02-15T03:34:06;-3.60;82.70
75451;DHT22;64029;48.244;9.188;2023-02-15T03:36:41;-3.60;82.70
75451;DHT22;64029;48.244;9.188;2023-02-15T03:39:16;-3.60;82.60
75451;DHT22;64029;48.244;9.188;2023-02-15T03:41:51;-3.70;82.50
75451;DHT22;64029;48.244;9.188;2023-02-15T03:44:27;-3.70;82.60
75451;DHT22;64029;48.244;9.188;2023-02-15T03:46:58;-3.70;82.60
75451;DHT22;64029;48.244;9.188;2023-02-15T03:49:30;-3.70;82.60
75451;DHT22;64029;48.244;9.188;2023-02-15T03:52:00;-3.80;82.40
75451;DHT22;64029;48.244;9.188;2023-02-15T03:54:29;-3.80;82.40
75451;DHT22;64029;48.244;9.188;2023-02-15T03:57:12;-3.80;82.50
75451;DHT22;64029;48.244;9.188;2023-02-15T03:59:58;-3.80;82.60
75451;DHT22;64029;48.244;9.188;2023-02-15T04:02:52;-3.80;82.70
75451;DHT22;64029;48.244;9.188;2023-02-15T04:05:23;-3.90;82.50
75451;DHT22;64029;48.244;9.188;2023-02-15T04:07:50;-3.80;82.60
75451;DHT22;64029;48.244;9.188;2023-02-15T04:10:17;-3.80;82.70
75451;DHT22;64029;48.244;9.188;2023-02-15T04:13:01;-3.90;82.50
75451;DHT22;64029;48.244;9.188;2023-02-15T04:15:28;-3.80;82.60
75451;DHT22;64029;48.244;9.188;2023-02-15T04:18:12;-3.90;82.40
75451;DHT22;64029;48.244;9.188;2023-02-15T04:20:43;-3.90;82.30
75451;DHT22;64029;48.244;9.188;2023-02-15T04:23:27;-3.90;82.40
75451;DHT22;64029;48.244;9.188;2023-02-15T04:26:11;-4.00;82.30
75451;DHT22;64029;48.244;9.188;2023-02-15T04:28:38;-4.00;82.30
75451;DHT22;64029;48.244;9.188;2023-02-15T04:31:05;-4.00;82.40
75451;DHT22;64029;48.244;9.188;2023-02-15T04:33:32;-4.00;82.40
75451;DHT22;64029;48.244;9.188;2023-02-15T04:36:03;-4.00;82.30
75451;DHT22;64029;48.244;9.188;2023-02-15T04:38:29;-4.00;82.30
75451;DHT22;64029;48.244;9.188;2023-02-15T04:40:56;-4.00;82.20
75451;DHT22;64029;48.244;9.188;2023-02-15T04:43:23;-4.10;82.10
75451;DHT22;64029;48.244;9.188;2023-02-15T04:45:50;-4.10;82.10
75451;DHT22;64029;48.244;9.188;2023-02-15T04:48:17;-4.10;82.10
75451;DHT22;64029;48.244;9.188;2023-02-15T04:50:44;-4.10;82.20
75451;DHT22;64029;48.244;9.188;2023-02-15T04:53:13;-4.10;82.10
75451;DHT22;64029;48.244;9.188;2023-02-15T04:55:42;-4.10;82.20
75451;DHT22;64029;48.244;9.188;2023-02-15T04:58:08;-4.10;82.30
75451;DHT22;64029;48.244;9.188;2023-02-15T05:00:35;-4.20;82.20
75451;DHT22;64029;48.244;9.188;2023-02-15T05:03:02;-4.20;82.30
75451;DHT22;64029;48.244;9.188;2023-02-15T05:05:29;-4.20;82.30
75451;DHT22;64029;48.244;9.188;2023-02-15T05:07:56;-4.20;82.20
75451;DHT22;64029;48.244;9.188;2023-02-15T05:10:24;-4.20;82.30
75451;DHT22;64029;48.244;9.188;2023-02-15T05:12:51;-4.20;82.30
75451;DHT22;64029;48.244;9.188;2023-02-15T05:15:18;-4.20;82.30
75451;DHT22;64029;48.244;9.188;2023-02-15T05:17:44;-4.20;82.20
75451;DHT22;64029;48.244;9.188;2023-02-15T05:20:11;-4.30;82.10
75451;DHT22;64029;48.244;9.188;2023-02-15T05:22:38;-4.30;82.20
75451;DHT22;64029;48.244;9.188;2023-02-15T05:25:07;-4.30;82.10
75451;DHT22;64029;48.244;9.188;2023-02-15T05:27:53;-4.30;82.90
75451;DHT22;64029;48.244;9.188;2023-02-15T05:30:37;-4.30;82.20
75451;DHT22;64029;48.244;9.188;2023-02-15T05:33:05;-4.30;82.40
75451;DHT22;64029;48.244;9.188;2023-02-15T05:35:32;-4.40;82.20
75451;DHT22;64029;48.244;9.188;2023-02-15T05:37:59;-4.40;82.20
75451;DHT22;64029;48.244;9.188;2023-02-15T05:40:27;-4.40;82.20
75451;DHT22;64029;48.244;9.188;2023-02-15T05:42:56;-4.40;82.10
75451;DHT22;64029;48.244;9.188;2023-02-15T05:45:23;-4.40;82.00
75451;DHT22;64029;48.244;9.188;2023-02-15T05:47:50;-4.40;82.00
75451;DHT22;64029;48.244;9.188;2023-02-15T05:50:17;-4.40;81.90
75451;DHT22;64029;48.244;9.188;2023-02-15T05:52:43;-4.40;81.90
75451;DHT22;64029;48.244;9.188;2023-02-15T05:55:10;-4.40;82.10
75451;DHT22;64029;48.244;9.188;2023-02-15T05:57:37;-4.50;82.00
75451;DHT22;64029;48.244;9.188;2023-02-15T06:00:07;-4.50;81.90
75451;DHT22;64029;48.244;9.188;2023-02-15T06:02:35;-4.50;81.80
75451;DHT22;64029;48.244;9.188;2023-02-15T06:05:03;-4.50;81.90
75451;DHT22;64029;48.244;9.188;2023-02-15T06:07:30;-4.50;81.80
75451;DHT22;64029;48.244;9.188;2023-02-15T06:09:56;-4.50;81.90
75451;DHT22;64029;48.244;9.188;2023-02-15T06:12:23;-4.50;81.90
75451;DHT22;64029;48.244;9.188;2023-02-15T06:14:50;-4.60;81.70
75451;DHT22;64029;48.244;9.188;2023-02-15T06:17:18;-4.60;81.70
75451;DHT22;64029;48.244;9.188;2023-02-15T06:19:47;-4.60;81.60
75451;DHT22;64029;48.244;9.188;2023-02-15T06:22:14;-4.60;81.60
75451;DHT22;64029;48.244;9.188;2023-02-15T06:24:40;-4.60;81.50
75451;DHT22;64029;48.244;9.188;2023-02-15T06:27:08;-4.60;81.40
75451;DHT22;64029;48.244;9.188;2023-02-15T06:29:35;-4.70;81.30
75451;DHT22;64029;48.244;9.188;2023-02-15T06:32:02;-4.70;81.20
75451;DHT22;64029;48.244;9.188;2023-02-15T06:34:30;-4.70;81.40
75451;DHT22;64029;48.244;9.188;2023-02-15T06:36:58;-4.70;81.30
75451;DHT22;64029;48.244;9.188;2023-02-15T06:39:24;-4.70;81.30
75451;DHT22;64029;48.244;9.188;2023-02-15T06:41:51;-4.70;81.40
75451;DHT22;64029;48.244;9.188;2023-02-15T06:44:18;-4.70;81.40
75451;DHT22;64029;48.244;9.188;2023-02-15T06:46:45;-4.80;81.30
75451;DHT22;64029;48.244;9.188;2023-02-15T06:49:12;-4.80;81.20
75451;DHT22;64029;48.244;9.188;2023-02-15T06:51:40;-4.80;81.30
75451;DHT22;64029;48.244;9.188;2023-02-15T06:54:07;-4.80;81.30
75451;DHT22;64029;48.244;9.188;2023-02-15T06:56:34;-4.80;81.20
75451;DHT22;64029;48.244;9.188;2023-02-15T06:59:01;-4.80;81.20
75451;DHT22;64029;48.244;9.188;2023-02-15T07:01:28;-4.80;81.30
75451;DHT22;64029;48.244;9.188;2023-02-15T07:03:54;-4.80;81.50
75451;DHT22;64029;48.244;9.188;2023-02-15T07:06:21;-4.80;81.50
75451;DHT22;64029;48.244;9.188;2023-02-15T07:08:49;-4.80;81.70
75451;DHT22;64029;48.244;9.188;2023-02-15T07:11:16;-4.80;81.70
75451;DHT22;64029;48.244;9.188;2023-02-15T07:14:00;-4.80;81.80
75451;DHT22;64029;48.244;9.188;2023-02-15T07:16:27;-4.80;81.70
75451;DHT22;64029;48.244;9.188;2023-02-15T07:18:54;-4.80;81.70
75451;DHT22;64029;48.244;9.188;2023-02-15T07:21:21;-4.80;81.80
75451;DHT22;64029;48.244;9.188;2023-02-15T07:23:49;-4.80;81.90
75451;DHT22;64029;48.244;9.188;2023-02-15T07:26:16;-4.70;82.10
75451;DHT22;64029;48.244;9.188;2023-02-15T07:28:43;-4.60;82.40
75451;DHT22;64029;48.244;9.188;2023-02-15T07:31:09;-4.60;82.00
75451;DHT22;64029;48.244;9.188;2023-02-15T07:33:36;-4.60;82.00
75451;DHT22;64029;48.244;9.188;2023-02-15T07:36:04;-4.60;82.10
75451;DHT22;64029;48.244;9.188;2023-02-15T07:38:33;-4.60;82.10
75451;DHT22;64029;48.244;9.188;2023-02-15T07:41:03;-4.60;82.10
75451;DHT22;64029;48.244;9.188;2023-02-15T07:43:32;-4.60;82.10
75451;DHT22;64029;48.244;9.188;2023-02-15T07:45:59;-4.50;82.20
75451;DHT22;64029;48.244;9.188;2023-02-15T07:48:26;-4.50;82.20
75451;DHT22;64029;48.244;9.188;2023-02-15T07:50:53;-4.50;82.20
75451;DHT22;64029;48.244;9.188;2023-02-15T07:53:20;-4.40;82.30
75451;DHT22;64029;48.244;9.188;2023-02-15T07:55:47;-4.40;82.40
75451;DHT22;64029;48.244;9.188;2023-02-15T07:58:15;-4.30;82.50
75451;DHT22;64029;48.244;9.188;2023-02-15T08:00:42;-4.30;82.50
75451;DHT22;64029;48.244;9.188;2023-02-15T08:03:24;-4.20;82.70
75451;DHT22;64029;48.244;9.188;2023-02-15T08:05:56;-4.10;82.80
75451;DHT22;64029;48.244;9.188;2023-02-15T08:08:23;-4.10;82.90
75451;DHT22;64029;48.244;9.188;2023-02-15T08:10:58;-4.00;83.00
75451;DHT22;64029;48.244;9.188;2023-02-15T08:13:45;-4.00;83.00
75451;DHT22;64029;48.244;9.188;2023-02-15T08:16:20;-3.90;83.20
75451;DHT22;64029;48.244;9.188;2023-02-15T08:18:46;-3.80;83.40
75451;DHT22;64029;48.244;9.188;2023-02-15T08:21:13;-3.70;83.40
75451;DHT22;64029;48.244;9.188;2023-02-15T08:23:40;-3.70;83.40
75451;DHT22;64029;48.244;9.188;2023-02-15T08:26:07;-3.60;83.70
75451;DHT22;64029;48.244;9.188;2023-02-15T08:28:34;-3.60;83.50
75451;DHT22;64029;48.244;9.188;2023-02-15T08:31:06;-3.50;84.20
75451;DHT22;64029;48.244;9.188;2023-02-15T08:33:33;-3.50;84.10
75451;DHT22;64029;48.244;9.188;2023-02-15T08:36:03;-3.40;84.00
75451;DHT22;64029;48.244;9.188;2023-02-15T08:38:29;-3.40;83.90
75451;DHT22;64029;48.244;9.188;2023-02-15T08:40:56;-3.40;83.90
75451;DHT22;64029;48.244;9.188;2023-02-15T08:43:23;-3.30;84.60
75451;DHT22;64029;48.244;9.188;2023-02-15T08:45:50;-3.20;84.70
75451;DHT22;64029;48.244;9.188;2023-02-15T08:48:18;-3.10;85.20
75451;DHT22;64029;48.244;9.188;2023-02-15T08:50:45;-3.00;86.40
75451;DHT22;64029;48.244;9.188;2023-02-15T08:53:12;-2.90;86.90
75451;DHT22;64029;48.244;9.188;2023-02-15T08:55:39;-2.70;87.70
75451;DHT22;64029;48.244;9.188;2023-02-15T08:58:06;-2.60;88.20
75451;DHT22;64029;48.244;9.188;2023-02-15T09:00:33;-2.40;89.60
75451;DHT22;64029;48.244;9.188;2023-02-15T09:03:00;-2.20;90.20
75451;DHT22;64029;48.244;9.188;2023-02-15T09:05:28;-2.20;89.80
75451;DHT22;64029;48.244;9.188;2023-02-15T09:07:55;-2.20;88.70
75451;DHT22;64029;48.244;9.188;2023-02-15T09:10:21;-2.20;88.40
75451;DHT22;64029;48.244;9.188;2023-02-15T09:12:48;-2.00;90.40
75451;DHT22;64029;48.244;9.188;2023-02-15T09:15:16;-2.00;90.10
75451;DHT22;64029;48.244;9.188;2023-02-15T09:17:43;-1.90;90.20
75451;DHT22;64029;48.244;9.188;2023-02-15T09:20:10;-1.80;90.20
75451;DHT22;64029;48.244;9.188;2023-02-15T09:22:38;-1.50;90.90
75451;DHT22;64029;48.244;9.188;2023-02-15T09:25:06;-1.30;91.20
75451;DHT22;64029;48.244;9.188;2023-02-15T09:27:33;-1.30;90.90
75451;DHT22;64029;48.244;9.188;2023-02-15T09:29:59;-1.40;90.70
75451;DHT22;64029;48.244;9.188;2023-02-15T09:32:26;-1.30;90.90
75451;DHT22;64029;48.244;9.188;2023-02-15T09:34:53;-0.90;91.90
75451;DHT22;64029;48.244;9.188;2023-02-15T09:37:20;-0.90;91.50
75451;DHT22;64029;48.244;9.188;2023-02-15T09:39:48;-0.60;91.90
75451;DHT22;64029;48.244;9.188;2023-02-15T09:42:40;-0.60;91.70
75451;DHT22;64029;48.244;9.188;2023-02-15T09:45:23;-0.40;91.90
75451;DHT22;64029;48.244;9.188;2023-02-15T09:48:14;-0.30;92.10
75451;DHT22;64029;48.244;9.188;2023-02-15T09:50:53;0.00;92.40
75451;DHT22;64029;48.244;9.188;2023-02-15T09:53:40;0.00;92.30
75451;DHT22;64029;48.244;9.188;2023-02-15T09:56:17;0.30;92.50
75451;DHT22;64029;48.244;9.188;2023-02-15T09:58:52;0.10;92.40
75451;DHT22;64029;48.244;9.188;2023-02-15T10:01:28;0.10;92.20
75451;DHT22;64029;48.244;9.188;2023-02-15T10:04:09;0.10;92.30
75451;DHT22;64029;48.244;9.188;2023-02-15T10:06:42;0.50;92.60
75451;DHT22;64029;48.244;9.188;2023-02-15T10:09:28;0.60;92.60
75451;DHT22;64029;48.244;9.188;2023-02-15T10:12:22;1.00;92.80
75451;DHT22;64029;48.244;9.188;2023-02-15T10:15:14;1.30;92.90
75451;DHT22;64029;48.244;9.188;2023-02-15T10:17:54;1.10;92.40
75451;DHT22;64029;48.244;9.188;2023-02-15T10:20:27;1.00;92.60
75451;DHT22;64029;48.244;9.188;2023-02-15T10:23:13;1.10;92.40
75451;DHT22;64029;48.244;9.188;2023-02-15T10:25:47;1.20;92.50
75451;DHT22;64029;48.244;9.188;2023-02-15T10:28:19;1.30;92.50
75451;DHT22;64029;48.244;9.188;2023-02-15T10:30:48;1.80;93.00
75451;DHT22;64029;48.244;9.188;2023-02-15T10:33:32;1.80;92.60
75451;DHT22;64029;48.244;9.188;2023-02-15T10:36:11;2.20;92.50
75451;DHT22;64029;48.244;9.188;2023-02-15T10:38:50;2.40;92.10
75451;DHT22;64029;48.244;9.188;2023-02-15T10:41:29;2.50;91.80
75451;DHT22;64029;48.244;9.188;2023-02-15T10:44:21;2.30;91.60
75451;DHT22;64029;48.244;9.188;2023-02-15T10:47:06;2.70;91.70
75451;DHT22;64029;48.244;9.188;2023-02-15T10:49:55;2.80;91.50
75451;DHT22;64029;48.244;9.188;2023-02-15T10:52:37;2.90;91.50
75451;DHT22;64029;48.244;9.188;2023-02-15T10:55:13;2.80;91.20
75451;DHT22;64029;48.244;9.188;2023-02-15T10:57:48;3.20;91.70
75451;DHT22;64029;48.244;9.188;2023-02-15T11:00:23;3.20;91.20
75451;DHT22;64029;48.244;9.188;2023-02-15T11:03:11;3.60;91.50
75451;DHT22;64029;48.244;9.188;2023-02-15T11:05:46;3.70;91.20
75451;DHT22;64029;48.244;9.188;2023-02-15T11:08:16;3.70;91.10
75451;DHT22;64029;48.244;9.188;2023-02-15T11:10:47;4.00;91.00
75451;DHT22;64029;48.244;9.188;2023-02-15T11:13:17;3.60;90.50
75451;DHT22;64029;48.244;9.188;2023-02-15T11:15:49;4.00;90.90
75451;DHT22;64029;48.244;9.188;2023-02-15T11:18:23;4.00;90.70
75451;DHT22;64029;48.244;9.188;2023-02-15T11:20:54;4.10;91.00
75451;DHT22;64029;48.244;9.188;2023-02-15T11:23:24;4.20;90.60
75451;DHT22;64029;48.244;9.188;2023-02-15T11:25:56;4.30;90.60
75451;DHT22;64029;48.244;9.188;2023-02-15T11:28:27;4.60;90.20
75451;DHT22;64029;48.244;9.188;2023-02-15T11:30:58;4.70;89.50
75451;DHT22;64029;48.244;9.188;2023-02-15T11:33:29;4.70;89.90
75451;DHT22;64029;48.244;9.188;2023-02-15T11:36:00;4.90;89.30
75451;DHT22;64029;48.244;9.188;2023-02-15T11:38:32;4.70;90.00
75451;DHT22;64029;48.244;9.188;2023-02-15T11:41:02;4.90;89.70
75451;DHT22;64029;48.244;9.188;2023-02-15T11:43:34;5.30;89.00
75451;DHT22;64029;48.244;9.188;2023-02-15T11:46:04;5.50;88.50
75451;DHT22;64029;48.244;9.188;2023-02-15T11:48:32;5.70;88.00
75451;DHT22;64029;48.244;9.188;2023-02-15T11:51:00;5.70;87.90
75451;DHT22;64029;48.244;9.188;2023-02-15T11:53:32;5.90;87.70
75451;DHT22;64029;48.244;9.188;2023-02-15T11:56:00;5.90;87.60
75451;DHT22;64029;48.244;9.188;2023-02-15T11:58:34;5.90;87.40
75451;DHT22;64029;48.244;9.188;2023-02-15T12:01:09;5.80;87.90
75451;DHT22;64029;48.244;9.188;2023-02-15T12:03:43;6.00;87.60
75451;DHT22;64029;48.244;9.188;2023-02-15T12:06:16;6.10;87.40
75451;DHT22;64029;48.244;9.188;2023-02-15T12:08:48;6.20;87.20
75451;DHT22;64029;48.244;9.188;2023-02-15T12:11:19;6.00;87.60
75451;DHT22;64029;48.244;9.188;2023-02-15T12:13:55;6.20;87.70
75451;DHT22;64029;48.244;9.188;2023-02-15T12:16:24;6.30;87.10
75451;DHT22;64029;48.244;9.188;2023-02-15T12:18:54;6.70;87.70
75451;DHT22;64029;48.244;9.188;2023-02-15T12:21:27;6.80;87.30
75451;DHT22;64029;48.244;9.188;2023-02-15T12:23:57;7.00;86.50
75451;DHT22;64029;48.244;9.188;2023-02-15T12:26:26;6.70;86.70
75451;DHT22;64029;48.244;9.188;2023-02-15T12:28:55;6.40;87.50
75451;DHT22;64029;48.244;9.188;2023-02-15T12:31:31;6.50;87.70
75451;DHT22;64029;48.244;9.188;2023-02-15T12:34:01;6.90;87.00
75451;DHT22;64029;48.244;9.188;2023-02-15T12:36:31;7.00;85.90
75451;DHT22;64029;48.244;9.188;2023-02-15T12:39:17;7.30;84.40
75451;DHT22;64029;48.244;9.188;2023-02-15T12:41:46;7.20;84.20
75451;DHT22;64029;48.244;9.188;2023-02-15T12:44:17;7.20;84.90
75451;DHT22;64029;48.244;9.188;2023-02-15T12:46:56;7.50;83.30
75451;DHT22;64029;48.244;9.188;2023-02-15T12:49:23;7.80;81.90
75451;DHT22;64029;48.244;9.188;2023-02-15T12:51:53;7.90;80.20
75451;DHT22;64029;48.244;9.188;2023-02-15T12:54:30;7.80;81.00
75451;DHT22;64029;48.244;9.188;2023-02-15T12:56:58;7.90;80.50
75451;DHT22;64029;48.244;9.188;2023-02-15T12:59:25;8.10;79.70
75451;DHT22;64029;48.244;9.188;2023-02-15T13:01:53;7.80;81.30
75451;DHT22;64029;48.244;9.188;2023-02-15T13:04:23;7.70;81.80
75451;DHT22;64029;48.244;9.188;2023-02-15T13:06:52;7.80;80.40
75451;DHT22;64029;48.244;9.188;2023-02-15T13:09:35;7.90;80.30
75451;DHT22;64029;48.244;9.188;2023-02-15T13:12:17;8.10;77.90
75451;DHT22;64029;48.244;9.188;2023-02-15T13:14:46;8.30;76.70
75451;DHT22;64029;48.244;9.188;2023-02-15T13:17:19;8.10;78.50
75451;DHT22;64029;48.244;9.188;2023-02-15T13:19:51;7.80;78.80
75451;DHT22;64029;48.244;9.188;2023-02-15T13:22:22;7.80;79.00
75451;DHT22;64029;48.244;9.188;2023-02-15T13:24:54;7.70;78.90
75451;DHT22;64029;48.244;9.188;2023-02-15T13:27:24;7.90;75.00
75451;DHT22;64029;48.244;9.188;2023-02-15T13:29:56;8.20;74.80
75451;DHT22;64029;48.244;9.188;2023-02-15T13:32:30;8.20;72.10
75451;DHT22;64029;48.244;9.188;2023-02-15T13:34:59;8.30;73.30
75451;DHT22;64029;48.244;9.188;2023-02-15T13:37:40;8.10;75.90
75451;DHT22;64029;48.244;9.188;2023-02-15T13:40:14;8.10;77.30
75451;DHT22;64029;48.244;9.188;2023-02-15T13:42:46;8.50;74.80
75451;DHT22;64029;48.244;9.188;2023-02-15T13:45:33;8.30;77.00
75451;DHT22;64029;48.244;9.188;2023-02-15T13:48:12;8.40;75.80
75451;DHT22;64029;48.244;9.188;2023-02-15T13:50:52;8.70;75.40
75451;DHT22;64029;48.244;9.188;2023-02-15T13:53:36;8.60;76.30
75451;DHT22;64029;48.244;9.188;2023-02-15T13:56:13;8.50;77.90
75451;DHT22;64029;48.244;9.188;2023-02-15T13:59:00;8.50;78.50
75451;DHT22;64029;48.244;9.188;2023-02-15T14:01:36;8.40;79.60
75451;DHT22;64029;48.244;9.188;2023-02-15T14:10:24;8.60;79.60
75451;DHT22;64029;48.244;9.188;2023-02-15T14:13:24;8.60;79.50
75451;DHT22;64029;48.244;9.188;2023-02-15T14:16:00;8.70;79.10
75451;DHT22;64029;48.244;9.188;2023-02-15T14:18:35;8.60;79.70
75451;DHT22;64029;48.244;9.188;2023-02-15T14:21:10;8.60;80.50
75451;DHT22;64029;48.244;9.188;2023-02-15T14:23:48;8.60;79.00
75451;DHT22;64029;48.244;9.188;2023-02-15T14:26:23;8.60;78.80
75451;DHT22;64029;48.244;9.188;2023-02-15T14:29:00;8.70;78.00
75451;DHT22;64029;48.244;9.188;2023-02-15T14:31:36;8.70;78.30
75451;DHT22;64029;48.244;9.188;2023-02-15T14:34:04;8.80;77.90
75451;DHT22;64029;48.244;9.188;2023-02-15T14:36:33;8.80;78.00
75451;DHT22;64029;48.244;9.188;2023-02-15T14:39:08;8.80;77.30
75451;DHT22;64029;48.244;9.188;2023-02-15T14:41:59;8.90;77.00
75451;DHT22;64029;48.244;9.188;2023-02-15T14:44:33;8.90;78.00
75451;DHT22;64029;48.244;9.188;2023-02-15T14:47:05;8.90;77.60
75451;DHT22;64029;48.244;9.188;2023-02-15T14:49:36;8.80;78.80
75451;DHT22;64029;48.244;9.188;2023-02-15T14:52:06;8.70;79.60
75451;DHT22;64029;48.244;9.188;2023-02-15T14:54:56;8.60;80.30
75451;DHT22;64029;48.244;9.188;2023-02-15T14:57:28;8.70;79.20
75451;DHT22;64029;48.244;9.188;2023-02-15T14:59:58;8.70;78.70
75451;DHT22;64029;48.244;9.188;2023-02-15T15:02:28;8.60;80.30
75451;DHT22;64029;48.244;9.188;2023-02-15T15:05:07;8.50;80.90
75451;DHT22;64029;48.244;9.188;2023-02-15T15:07:43;8.50;81.70
75451;DHT22;64029;48.244;9.188;2023-02-15T15:10:38;8.40;82.00
75451;DHT22;64029;48.244;9.188;2023-02-15T15:13:39;8.40;82.60
75451;DHT22;64029;48.244;9.188;2023-02-15T15:16:30;8.40;83.20
75451;DHT22;64029;48.244;9.188;2023-02-15T15:18:57;8.30;83.50
75451;DHT22;64029;48.244;9.188;2023-02-15T15:21:56;8.30;83.60
75451;DHT22;64029;48.244;9.188;2023-02-15T15:24:47;8.20;83.60
75451;DHT22;64029;48.244;9.188;2023-02-15T15:27:39;8.20;84.30
75451;DHT22;64029;48.244;9.188;2023-02-15T15:34:01;8.00;83.20
75451;DHT22;64029;48.244;9.188;2023-02-15T15:43:08;7.80;84.10
75451;DHT22;64029;48.244;9.188;2023-02-15T15:45:58;7.70;83.90
75451;DHT22;64029;48.244;9.188;2023-02-15T15:48:31;7.70;83.90
75451;DHT22;64029;48.244;9.188;2023-02-15T15:51:03;7.60;84.10
75451;DHT22;64029;48.244;9.188;2023-02-15T15:53:34;7.50;83.30
75451;DHT22;64029;48.244;9.188;2023-02-15T15:56:12;7.40;83.50
75451;DHT22;64029;48.244;9.188;2023-02-15T15:58:44;7.40;83.30
75451;DHT22;64029;48.244;9.188;2023-02-15T16:01:12;7.30;83.00
75451;DHT22;64029;48.244;9.188;2023-02-15T16:03:49;7.20;83.40
75451;DHT22;64029;48.244;9.188;2023-02-15T16:06:27;7.20;83.40
75451;DHT22;64029;48.244;9.188;2023-02-15T16:08:54;7.20;83.30
75451;DHT22;64029;48.244;9.188;2023-02-15T16:11:29;7.10;82.90
75451;DHT22;64029;48.244;9.188;2023-02-15T16:13:57;7.00;82.60
75451;DHT22;64029;48.244;9.188;2023-02-15T16:16:30;6.90;82.30
75451;DHT22;64029;48.244;9.188;2023-02-15T16:18:58;6.80;82.40
75451;DHT22;64029;48.244;9.188;2023-02-15T16:21:29;6.80;82.60
75451;DHT22;64029;48.244;9.188;2023-02-15T16:24:25;6.70;83.10